Time;durP1;ratioP1;P1;durP2;ratioP2;P2;SDS_P1;SDS_P2;PMS_P1;PMS_P2;Temp;Humidity;BMP_temperature;BMP_pressure;BME280_temperature;BME280_humidity;BME280_pressure;Samples;Min_cycle;Max_cycle;Signal;HPM_P1;HPM_P2
2023/07/21 00:01:36;;;;;;;6.68;5.18;;;;;;;;;;5059713;28;20052;-70
2023/07/21 00:04:03;;;;;;;6.88;5.72;;;;;;;;;;5049644;28;20025;-70
2023/07/21 00:06:30;;;;;;;7.63;6.13;;;;;;;;;;5049945;28;20051;-70
2023/07/21 00:08:56;;;;;;;7.75;5.97;;;;;;;;;;5033863;28;20041;-70
2023/07/21 00:11:22;;;;;;;8.10;6.70;;;;;;;;;;5040520;28;20112;-70
2023/07/21 00:13:48;;;;;;;9.77;7.72;;;;;;;;;;5049103;28;20112;-69
2023/07/21 00:16:14;;;;;;;8.93;7.53;;;;;;;;;;5047590;28;20035;-70
2023/07/21 00:18:41;;;;;;;12.50;8.15;;;;;;;;;;5047197;28;20359;-70
2023/07/21 00:21:08;;;;;;;9.90;8.27;;;;;;;;;;5038483;28;20040;-69
2023/07/21 00:23:36;;;;;;;10.07;8.13;;;;;;;;;;5039747;28;20026;-70
2023/07/21 00:26:02;;;;;;;10.80;8.15;;;;;;;;;;5044457;28;20033;-70
2023/07/21 00:28:28;;;;;;;12.02;8.18;;;;;;;;;;5063303;28;20128;-70
2023/07/21 00:30:55;;;;;;;11.27;8.15;;;;;;;;;;5014589;28;20073;-70
2023/07/21 00:33:22;;;;;;;9.82;8.70;;;;;;;;;;5049972;28;20076;-70
2023/07/21 00:35:48;;;;;;;12.07;8.80;;;;;;;;;;5044035;28;20030;-70
2023/07/21 00:38:14;;;;;;;11.85;9.70;;;;;;;;;;5045621;28;20029;-71
2023/07/21 00:40:41;;;;;;;13.52;10.80;;;;;;;;;;5033680;28;20030;-70
2023/07/21 00:43:16;;;;;;;10.95;9.07;;;;;;;;;;5043745;28;20021;-70
2023/07/21 00:45:43;;;;;;;11.10;9.70;;;;;;;;;;5050340;28;20036;-71
2023/07/21 00:48:10;;;;;;;13.32;10.57;;;;;;;;;;5040122;28;20108;-70
2023/07/21 00:50:42;;;;;;;11.23;9.93;;;;;;;;;;5043052;28;20493;-70
2023/07/21 00:53:09;;;;;;;13.07;10.25;;;;;;;;;;5049318;28;20379;-71
2023/07/21 00:55:35;;;;;;;12.60;10.32;;;;;;;;;;5065399;28;20021;-71
2023/07/21 00:58:02;;;;;;;16.80;10.13;;;;;;;;;;5050197;28;20124;-70
2023/07/21 01:00:28;;;;;;;15.45;10.93;;;;;;;;;;5018770;28;20034;-69
2023/07/21 01:02:55;;;;;;;14.95;11.40;;;;;;;;;;5057153;28;20032;-70
2023/07/21 01:05:21;;;;;;;12.35;10.98;;;;;;;;;;5045336;28;20041;-70
2023/07/21 01:07:49;;;;;;;13.35;10.35;;;;;;;;;;5044571;28;20036;-69
2023/07/21 01:10:15;;;;;;;14.02;10.05;;;;;;;;;;5036633;28;20037;-70
2023/07/21 01:12:41;;;;;;;14.68;10.50;;;;;;;;;;5044158;28;20033;-71
2023/07/21 01:15:09;;;;;;;17.48;10.80;;;;;;;;;;5049097;28;20044;-71
2023/07/21 01:17:36;;;;;;;15.13;11.93;;;;;;;;;;5039547;28;20151;-71
2023/07/21 01:20:04;;;;;;;13.68;11.45;;;;;;;;;;5046244;28;20025;-71
2023/07/21 01:22:36;;;;;;;15.20;11.65;;;;;;;;;;5045780;28;20028;-71
2023/07/21 01:25:11;;;;;;;14.85;11.88;;;;;;;;;;5047770;28;20017;-70
2023/07/21 01:27:39;;;;;;;16.70;12.07;;;;;;;;;;5039610;28;20053;-71
2023/07/21 01:30:08;;;;;;;16.05;12.45;;;;;;;;;;5030761;28;20053;-72
2023/07/21 01:32:37;;;;;;;18.70;12.68;;;;;;;;;;5039083;28;20040;-71
2023/07/21 01:35:04;;;;;;;16.77;12.80;;;;;;;;;;5042072;28;20029;-70
2023/07/21 01:37:31;;;;;;;17.65;14.68;;;;;;;;;;5047895;28;20097;-71
2023/07/21 01:39:57;;;;;;;21.90;15.65;;;;;;;;;;5049125;28;20037;-70
2023/07/21 01:42:29;;;;;;;17.73;14.15;;;;;;;;;;5048721;28;20025;-70
2023/07/21 01:44:56;;;;;;;21.95;15.63;;;;;;;;;;5045117;28;20537;-69
2023/07/21 01:47:24;;;;;;;18.67;14.77;;;;;;;;;;5059501;28;20036;-70
2023/07/21 01:49:51;;;;;;;18.60;15.75;;;;;;;;;;5047706;28;20094;-70
2023/07/21 01:52:18;;;;;;;17.13;13.85;;;;;;;;;;5049283;28;20497;-70
2023/07/21 01:54:44;;;;;;;16.08;13.25;;;;;;;;;;5046586;28;20024;-71
2023/07/21 01:57:14;;;;;;;17.73;13.70;;;;;;;;;;5049151;28;20040;-70
2023/07/21 01:59:43;;;;;;;17.42;13.82;;;;;;;;;;5047759;28;20017;-70
2023/07/21 02:02:10;;;;;;;19.13;14.10;;;;;;;;;;5054879;28;20657;-70
2023/07/21 02:04:38;;;;;;;23.92;15.13;;;;;;;;;;5041984;28;20053;-70
2023/07/21 02:07:05;;;;;;;18.58;13.90;;;;;;;;;;5034999;28;20036;-70
2023/07/21 02:09:31;;;;;;;25.52;14.55;;;;;;;;;;5041947;28;20036;-70
2023/07/21 02:11:58;;;;;;;18.83;13.63;;;;;;;;;;5041501;28;20044;-70
2023/07/21 02:14:37;;;;;;;20.53;13.27;;;;;;;;;;5049224;28;20036;-71
2023/07/21 02:17:06;;;;;;;20.83;14.77;;;;;;;;;;5047314;28;20303;-70
2023/07/21 02:19:32;;;;;;;19.63;15.70;;;;;;;;;;5042049;28;20538;-71
2023/07/21 02:21:58;;;;;;;20.80;14.80;;;;;;;;;;5059107;28;20071;-69
2023/07/21 02:24:25;;;;;;;22.40;15.48;;;;;;;;;;5041097;28;20028;-70
2023/07/21 02:26:51;;;;;;;22.60;14.93;;;;;;;;;;5045851;28;20029;-70
2023/07/21 02:29:17;;;;;;;23.23;15.85;;;;;;;;;;5048211;28;20104;-70
2023/07/21 02:31:45;;;;;;;20.38;14.50;;;;;;;;;;5035353;28;20048;-70
2023/07/21 02:34:12;;;;;;;24.50;16.10;;;;;;;;;;5036086;28;20091;-70
2023/07/21 02:36:38;;;;;;;24.73;17.77;;;;;;;;;;5026099;28;20041;-71
2023/07/21 02:39:04;;;;;;;23.25;17.25;;;;;;;;;;5035103;28;20028;-70
2023/07/21 02:41:30;;;;;;;23.35;15.55;;;;;;;;;;5046632;28;20036;-70
2023/07/21 02:43:57;;;;;;;26.20;17.80;;;;;;;;;;5048843;28;20023;-70
2023/07/21 02:46:23;;;;;;;24.20;17.95;;;;;;;;;;5034034;28;20037;-71
2023/07/21 02:48:51;;;;;;;23.98;17.25;;;;;;;;;;5048681;28;20104;-71
2023/07/21 02:51:17;;;;;;;29.17;18.70;;;;;;;;;;5047591;28;20029;-71
2023/07/21 02:53:47;;;;;;;27.77;19.23;;;;;;;;;;5046522;28;20037;-71
2023/07/21 02:56:15;;;;;;;28.35;19.25;;;;;;;;;;5049062;28;20119;-70
2023/07/21 02:59:04;;;;;;;28.60;19.63;;;;;;;;;;5049229;28;20076;-70
2023/07/21 03:01:31;;;;;;;30.95;19.38;;;;;;;;;;5045023;28;20095;-70
2023/07/21 03:03:57;;;;;;;26.55;18.48;;;;;;;;;;5050597;28;20030;-71
2023/07/21 03:06:24;;;;;;;28.33;16.30;;;;;;;;;;5037231;28;20070;-69
2023/07/21 03:08:53;;;;;;;25.05;17.23;;;;;;;;;;5045702;28;20463;-71
2023/07/21 03:11:22;;;;;;;27.98;18.20;;;;;;;;;;5062224;28;20033;-70
2023/07/21 03:14:00;;;;;;;24.58;17.17;;;;;;;;;;5046913;28;20029;-69
2023/07/21 03:16:28;;;;;;;27.25;18.33;;;;;;;;;;5051908;28;20036;-70
2023/07/21 03:18:55;;;;;;;29.67;19.70;;;;;;;;;;5049000;28;20029;-69
2023/07/21 03:21:22;;;;;;;33.90;21.42;;;;;;;;;;5032788;28;20029;-69
2023/07/21 03:23:49;;;;;;;30.90;21.05;;;;;;;;;;5065781;28;20234;-69
2023/07/21 03:26:21;;;;;;;36.50;24.38;;;;;;;;;;5042802;28;20037;-70
2023/07/21 03:28:48;;;;;;;36.72;23.05;;;;;;;;;;5046375;28;20158;-70
2023/07/21 03:31:14;;;;;;;38.17;24.10;;;;;;;;;;5049761;28;20041;-70
2023/07/21 03:33:59;;;;;;;33.28;22.50;;;;;;;;;;5041034;28;20636;-70
2023/07/21 03:36:28;;;;;;;36.63;23.15;;;;;;;;;;5043948;28;20069;-70
2023/07/21 03:38:54;;;;;;;34.97;23.65;;;;;;;;;;5050488;28;20120;-69
2023/07/21 03:41:21;;;;;;;37.40;23.35;;;;;;;;;;5064435;28;20021;-70
2023/07/21 03:43:48;;;;;;;36.00;22.58;;;;;;;;;;5042843;28;20710;-69
2023/07/21 03:46:14;;;;;;;38.10;24.45;;;;;;;;;;5039478;28;20033;-70
2023/07/21 03:49:11;;;;;;;37.10;23.02;;;;;;;;;;5029248;28;20041;-70
2023/07/21 03:51:40;;;;;;;37.45;24.40;;;;;;;;;;5049783;28;20036;-70
2023/07/21 03:54:09;;;;;;;35.70;23.33;;;;;;;;;;5040416;28;20033;-70
2023/07/21 03:56:35;;;;;;;35.17;23.00;;;;;;;;;;5047612;28;20037;-71
2023/07/21 03:59:02;;;;;;;36.25;20.40;;;;;;;;;;5041731;28;20025;-70
2023/07/21 04:01:28;;;;;;;33.45;20.58;;;;;;;;;;5051884;28;20481;-71
2023/07/21 04:03:55;;;;;;;37.10;23.20;;;;;;;;;;5047454;28;20502;-70
2023/07/21 04:06:23;;;;;;;33.13;22.63;;;;;;;;;;5037648;28;20033;-70
2023/07/21 04:08:51;;;;;;;40.80;23.30;;;;;;;;;;5040679;28;20087;-70
2023/07/21 04:11:17;;;;;;;38.38;22.65;;;;;;;;;;5050553;28;20024;-70
2023/07/21 04:13:43;;;;;;;32.63;21.20;;;;;;;;;;5049747;28;20047;-70
2023/07/21 04:16:11;;;;;;;34.42;21.88;;;;;;;;;;5050561;28;20040;-71
2023/07/21 04:18:38;;;;;;;35.67;20.33;;;;;;;;;;5047843;28;20017;-71
2023/07/21 04:21:04;;;;;;;40.17;23.13;;;;;;;;;;5029567;28;20021;-72
2023/07/21 04:23:31;;;;;;;34.28;20.90;;;;;;;;;;5048146;28;20025;-71
2023/07/21 04:25:58;;;;;;;39.45;21.02;;;;;;;;;;5048323;28;20115;-69
2023/07/21 04:28:24;;;;;;;44.70;23.10;;;;;;;;;;5051193;28;20032;-70
2023/07/21 04:30:54;;;;;;;41.70;23.02;;;;;;;;;;5030491;28;20059;-69
2023/07/21 04:33:20;;;;;;;40.35;21.67;;;;;;;;;;5041323;28;20068;-70
2023/07/21 04:35:47;;;;;;;36.20;21.98;;;;;;;;;;5047429;28;20033;-70
2023/07/21 04:38:18;;;;;;;36.22;21.92;;;;;;;;;;5033081;28;20398;-70
2023/07/21 04:40:50;;;;;;;39.83;22.05;;;;;;;;;;5063902;28;20025;-70
2023/07/21 04:43:17;;;;;;;35.60;21.48;;;;;;;;;;5048529;28;20025;-70
2023/07/21 04:45:44;;;;;;;38.20;22.05;;;;;;;;;;5045158;28;20044;-70
2023/07/21 04:48:16;;;;;;;31.15;20.27;;;;;;;;;;5048125;28;20473;-71
2023/07/21 04:50:50;;;;;;;19.27;15.25;;;;;;;;;;5032714;28;20078;-71
2023/07/21 04:53:17;;;;;;;19.70;15.30;;;;;;;;;;5048235;28;20033;-70
2023/07/21 04:55:43;;;;;;;21.80;15.00;;;;;;;;;;5038170;28;20508;-70
2023/07/21 04:58:10;;;;;;;20.20;14.98;;;;;;;;;;5049737;28;20025;-71
2023/07/21 05:00:36;;;;;;;18.98;14.15;;;;;;;;;;5044523;28;20022;-70
2023/07/21 05:03:02;;;;;;;18.42;13.57;;;;;;;;;;5046465;28;20083;-70
2023/07/21 05:05:28;;;;;;;22.45;13.48;;;;;;;;;;5049182;28;20551;-70
2023/07/21 05:07:59;;;;;;;15.65;13.07;;;;;;;;;;5049082;28;20059;-70
2023/07/21 05:10:26;;;;;;;18.52;13.07;;;;;;;;;;5045695;28;20036;-70
2023/07/21 05:12:53;;;;;;;17.50;13.18;;;;;;;;;;5052456;28;20083;-70
2023/07/21 05:15:39;;;;;;;22.85;13.48;;;;;;;;;;5044863;28;20029;-69
2023/07/21 05:18:28;;;;;;;17.00;12.73;;;;;;;;;;5025610;28;20052;-70
2023/07/21 05:21:13;;;;;;;17.50;12.40;;;;;;;;;;5049740;28;20095;-69
2023/07/21 05:23:55;;;;;;;14.65;12.20;;;;;;;;;;5045286;28;20043;-71
2023/07/21 05:26:21;;;;;;;17.42;13.43;;;;;;;;;;5047263;28;20041;-71
2023/07/21 05:28:49;;;;;;;18.02;13.27;;;;;;;;;;5062174;28;20035;-70
2023/07/21 05:31:17;;;;;;;19.15;14.48;;;;;;;;;;5047868;28;20118;-71
2023/07/21 05:33:57;;;;;;;18.45;13.35;;;;;;;;;;5054926;28;20033;-70
2023/07/21 05:36:24;;;;;;;16.90;13.15;;;;;;;;;;5047066;28;20025;-69
2023/07/21 05:38:51;;;;;;;18.73;13.25;;;;;;;;;;5044894;28;20030;-69
2023/07/21 05:41:19;;;;;;;18.38;12.18;;;;;;;;;;5048729;28;20052;-69
2023/07/21 05:43:45;;;;;;;16.80;12.23;;;;;;;;;;5047035;28;20501;-71
2023/07/21 05:46:12;;;;;;;16.60;12.15;;;;;;;;;;5047400;28;20044;-70
2023/07/21 05:48:47;;;;;;;17.83;11.73;;;;;;;;;;5037874;28;20033;-70
2023/07/21 05:51:13;;;;;;;16.35;10.75;;;;;;;;;;5013004;28;20037;-69
2023/07/21 05:53:40;;;;;;;18.48;12.05;;;;;;;;;;5033108;28;20045;-70
2023/07/21 05:56:08;;;;;;;20.63;12.77;;;;;;;;;;5048491;28;20115;-69
2023/07/21 05:58:48;;;;;;;15.38;12.18;;;;;;;;;;5043936;28;20042;-70
2023/07/21 06:01:15;;;;;;;15.15;12.00;;;;;;;;;;5017781;28;20052;-70
2023/07/21 06:03:41;;;;;;;15.27;12.63;;;;;;;;;;5015281;28;20041;-70
2023/07/21 06:06:09;;;;;;;12.95;10.38;;;;;;;;;;5060412;28;20041;-70
2023/07/21 06:08:54;;;;;;;13.85;9.88;;;;;;;;;;5045833;28;20045;-69
2023/07/21 06:11:52;;;;;;;12.30;8.50;;;;;;;;;;5025931;28;20490;-69
2023/07/21 06:14:27;;;;;;;11.70;9.02;;;;;;;;;;5027087;28;20037;-70
2023/07/21 06:17:05;;;;;;;11.82;6.82;;;;;;;;;;5033521;28;20040;-70
2023/07/21 06:19:34;;;;;;;9.60;6.05;;;;;;;;;;5044755;28;20033;-70
2023/07/21 06:22:01;;;;;;;10.30;6.75;;;;;;;;;;5047058;28;20490;-70
2023/07/21 06:24:27;;;;;;;11.20;6.10;;;;;;;;;;5046444;28;20025;-71
2023/07/21 06:26:53;;;;;;;6.93;5.97;;;;;;;;;;5046673;28;20032;-70
2023/07/21 06:29:20;;;;;;;7.70;6.68;;;;;;;;;;5046103;28;20478;-69
2023/07/21 06:31:47;;;;;;;8.25;6.57;;;;;;;;;;5045928;28;20048;-70
2023/07/21 06:34:31;;;;;;;8.23;5.93;;;;;;;;;;5037353;28;20445;-71
2023/07/21 06:37:00;;;;;;;6.80;5.55;;;;;;;;;;5052537;28;20130;-70
2023/07/21 06:39:48;;;;;;;7.22;5.55;;;;;;;;;;5046912;28;20111;-70
2023/07/21 06:42:28;;;;;;;9.95;5.82;;;;;;;;;;5051811;28;20117;-69
2023/07/21 06:45:00;;;;;;;6.65;5.20;;;;;;;;;;5044003;28;20141;-69
2023/07/21 06:47:51;;;;;;;7.68;5.75;;;;;;;;;;5033887;28;20025;-68
2023/07/21 06:50:28;;;;;;;7.47;6.25;;;;;;;;;;5048290;28;20040;-69
2023/07/21 06:52:55;;;;;;;7.18;5.95;;;;;;;;;;5049022;28;20021;-70
2023/07/21 06:55:22;;;;;;;6.28;5.55;;;;;;;;;;5065020;28;20040;-70
2023/07/21 06:57:49;;;;;;;8.43;5.43;;;;;;;;;;5050670;28;20021;-71
2023/07/21 07:00:16;;;;;;;6.30;5.40;;;;;;;;;;5062109;28;20029;-70
2023/07/21 07:02:49;;;;;;;7.07;5.20;;;;;;;;;;5049256;28;20029;-71
2023/07/21 07:05:15;;;;;;;7.13;4.60;;;;;;;;;;5043924;28;20017;-70
2023/07/21 07:07:41;;;;;;;5.72;4.80;;;;;;;;;;5050449;28;20059;-70
2023/07/21 07:10:08;;;;;;;5.97;4.40;;;;;;;;;;5048638;28;20052;-71
2023/07/21 07:12:34;;;;;;;10.02;5.28;;;;;;;;;;5052212;28;20024;-70
2023/07/21 07:15:00;;;;;;;8.30;5.43;;;;;;;;;;5051106;28;20054;-70
2023/07/21 07:17:26;;;;;;;7.95;6.00;;;;;;;;;;5042422;28;20065;-70
2023/07/21 07:19:52;;;;;;;6.43;5.13;;;;;;;;;;5066261;28;20387;-69
2023/07/21 07:22:19;;;;;;;10.55;6.30;;;;;;;;;;5053174;28;20032;-70
2023/07/21 07:24:45;;;;;;;8.52;5.75;;;;;;;;;;5044468;28;20048;-71
2023/07/21 07:27:11;;;;;;;7.97;6.30;;;;;;;;;;5042983;28;20034;-68
2023/07/21 07:29:38;;;;;;;9.90;6.95;;;;;;;;;;5045757;28;20120;-70
2023/07/21 07:32:04;;;;;;;12.73;6.40;;;;;;;;;;5039739;28;20540;-70
2023/07/21 07:34:30;;;;;;;11.73;6.13;;;;;;;;;;5047001;28;20041;-70
2023/07/21 07:36:58;;;;;;;8.63;5.43;;;;;;;;;;5041898;28;20040;-71
2023/07/21 07:39:24;;;;;;;7.95;4.93;;;;;;;;;;5055902;28;20032;-70
2023/07/21 07:41:51;;;;;;;7.28;3.05;;;;;;;;;;5034596;28;20033;-70
2023/07/21 07:44:18;;;;;;;5.13;3.05;;;;;;;;;;5034229;28;20053;-70
2023/07/21 07:46:44;;;;;;;6.82;3.08;;;;;;;;;;5061960;28;20033;-70
2023/07/21 07:49:11;;;;;;;6.25;3.25;;;;;;;;;;5048804;28;20029;-70
2023/07/21 07:51:38;;;;;;;5.10;3.15;;;;;;;;;;5050638;28;20037;-70
2023/07/21 07:54:05;;;;;;;4.95;3.05;;;;;;;;;;5041542;28;20025;-72
2023/07/21 07:56:31;;;;;;;3.75;2.60;;;;;;;;;;5042675;28;20064;-70
2023/07/21 07:58:58;;;;;;;3.78;2.45;;;;;;;;;;5041667;28;20029;-70
2023/07/21 08:01:24;;;;;;;3.58;2.85;;;;;;;;;;5045354;28;20032;-70
2023/07/21 08:03:52;;;;;;;4.40;2.90;;;;;;;;;;5042127;28;20025;-69
2023/07/21 08:06:18;;;;;;;6.93;3.22;;;;;;;;;;5041838;28;20036;-69
2023/07/21 08:08:44;;;;;;;4.43;2.80;;;;;;;;;;5044818;28;20194;-70
2023/07/21 08:11:10;;;;;;;3.83;2.70;;;;;;;;;;5037410;28;20037;-70
2023/07/21 08:13:38;;;;;;;4.78;2.00;;;;;;;;;;5037503;28;20037;-71
2023/07/21 08:16:09;;;;;;;4.47;2.05;;;;;;;;;;5051231;28;20025;-70
2023/07/21 08:18:35;;;;;;;6.45;2.17;;;;;;;;;;5067390;28;20037;-70
2023/07/21 08:21:16;;;;;;;7.57;2.15;;;;;;;;;;5063189;28;20041;-69
2023/07/21 08:23:42;;;;;;;;;;;;;;;;;;5031403;28;20093;-70
2023/07/21 08:26:08;;;;;;;16.30;2.60;;;;;;;;;;5044218;28;19944;-69
2023/07/21 08:28:34;;;;;;;7.43;1.63;;;;;;;;;;5052380;28;20087;-70
2023/07/21 08:31:01;;;;;;;11.25;2.47;;;;;;;;;;5052131;28;20061;-70
2023/07/21 08:33:27;;;;;;;6.07;1.95;;;;;;;;;;5051666;28;20060;-70
2023/07/21 08:35:53;;;;;;;4.18;1.95;;;;;;;;;;5051930;28;20033;-70
2023/07/21 08:38:20;;;;;;;6.22;2.40;;;;;;;;;;5067247;28;20200;-70
2023/07/21 08:40:49;;;;;;;12.68;2.88;;;;;;;;;;5051467;28;20032;-69
2023/07/21 08:43:16;;;;;;;9.77;2.80;;;;;;;;;;5051119;28;20021;-70
2023/07/21 08:45:44;;;;;;;4.07;2.47;;;;;;;;;;5051444;28;20029;-70
2023/07/21 08:48:10;;;;;;;7.95;2.92;;;;;;;;;;5051475;28;20037;-70
2023/07/21 08:50:38;;;;;;;11.88;2.30;;;;;;;;;;5051893;28;20067;-70
2023/07/21 08:53:05;;;;;;;13.45;2.42;;;;;;;;;;5051322;28;20122;-70
2023/07/21 08:55:31;;;;;;;4.28;2.25;;;;;;;;;;5049772;28;20037;-70
2023/07/21 08:58:00;;;;;;;5.63;1.90;;;;;;;;;;5050065;28;20036;-70
2023/07/21 09:00:27;;;;;;;4.18;2.00;;;;;;;;;;5049892;28;20406;-70
2023/07/21 09:03:03;;;;;;;4.85;2.00;;;;;;;;;;5050673;28;20025;-70
2023/07/21 09:05:29;;;;;;;3.38;1.98;;;;;;;;;;5050977;28;20032;-70
2023/07/21 09:07:55;;;;;;;3.50;2.45;;;;;;;;;;5050566;28;20048;-70
2023/07/21 09:10:32;;;;;;;4.82;3.08;;;;;;;;;;5050732;28;20060;-70
2023/07/21 09:12:59;;;;;;;3.75;2.67;;;;;;;;;;5044249;28;20034;-71
2023/07/21 09:15:25;;;;;;;5.70;2.70;;;;;;;;;;5041625;28;20112;-69
2023/07/21 09:17:51;;;;;;;3.72;2.58;;;;;;;;;;5030801;28;20527;-69
2023/07/21 09:20:20;;;;;;;4.63;2.80;;;;;;;;;;5046402;28;20092;-69
2023/07/21 09:22:49;;;;;;;5.30;2.65;;;;;;;;;;5050920;28;20083;-69
2023/07/21 09:25:20;;;;;;;4.63;2.08;;;;;;;;;;5049723;28;20098;-69
2023/07/21 09:27:54;;;;;;;7.97;2.17;;;;;;;;;;5051121;28;20043;-70
2023/07/21 09:30:20;;;;;;;6.82;2.35;;;;;;;;;;5049533;28;20402;-70
2023/07/21 09:32:46;;;;;;;3.95;1.90;;;;;;;;;;5050740;28;20094;-70
2023/07/21 09:35:13;;;;;;;4.88;1.95;;;;;;;;;;5049484;28;20037;-70
2023/07/21 09:37:40;;;;;;;3.95;1.63;;;;;;;;;;5051168;28;20036;-70
2023/07/21 09:40:10;;;;;;;4.10;1.60;;;;;;;;;;5049594;28;20096;-69
2023/07/21 09:42:37;;;;;;;5.85;2.10;;;;;;;;;;5049086;28;20025;-70
2023/07/21 09:45:04;;;;;;;3.58;2.38;;;;;;;;;;5050381;28;20050;-70
2023/07/21 09:47:30;;;;;;;4.90;2.10;;;;;;;;;;5048863;28;20056;-70
2023/07/21 09:49:58;;;;;;;4.75;1.85;;;;;;;;;;5048926;28;20048;-70
2023/07/21 09:52:26;;;;;;;3.20;1.50;;;;;;;;;;5032362;28;20525;-70
2023/07/21 09:55:09;;;;;;;3.70;1.60;;;;;;;;;;5048893;28;20327;-71
2023/07/21 09:57:37;;;;;;;3.42;2.50;;;;;;;;;;5050059;28;20455;-71
2023/07/21 10:00:07;;;;;;;2.25;1.77;;;;;;;;;;5049750;28;20228;-70
2023/07/21 10:02:38;;;;;;;4.53;1.65;;;;;;;;;;5050415;28;20087;-70
2023/07/21 10:05:09;;;;;;;4.32;2.00;;;;;;;;;;5049942;28;20073;-70
2023/07/21 10:07:35;;;;;;;3.22;2.05;;;;;;;;;;5049962;28;20079;-70
2023/07/21 10:10:05;;;;;;;5.30;2.30;;;;;;;;;;5065177;28;20128;-71
2023/07/21 10:13:00;;;;;;;2.80;2.30;;;;;;;;;;5049523;28;20344;-71
2023/07/21 10:15:30;;;;;;;5.00;2.40;;;;;;;;;;5044869;28;20930;-70
2023/07/21 10:18:02;;;;;;;3.60;2.65;;;;;;;;;;5049645;28;20124;-71
2023/07/21 10:20:38;;;;;;;3.20;2.70;;;;;;;;;;5050065;28;20053;-71
2023/07/21 10:23:04;;;;;;;4.78;2.20;;;;;;;;;;5050631;28;20025;-71
2023/07/21 10:25:46;;;;;;;4.88;2.58;;;;;;;;;;5063016;28;20030;-72
2023/07/21 10:28:14;;;;;;;4.05;2.38;;;;;;;;;;5037071;28;20025;-71
2023/07/21 10:30:41;;;;;;;4.18;2.08;;;;;;;;;;5052142;28;20041;-70
2023/07/21 10:33:16;;;;;;;3.25;1.95;;;;;;;;;;5036806;28;20059;-70
2023/07/21 10:35:42;;;;;;;3.30;1.70;;;;;;;;;;5037009;28;20107;-70
2023/07/21 10:38:11;;;;;;;3.75;1.90;;;;;;;;;;5036874;28;20037;-71
2023/07/21 10:40:38;;;;;;;4.93;2.40;;;;;;;;;;5035481;28;20029;-71
2023/07/21 10:43:04;;;;;;;3.58;2.17;;;;;;;;;;5036608;28;20028;-71
2023/07/21 10:45:30;;;;;;;5.43;2.42;;;;;;;;;;5036657;28;20550;-71
2023/07/21 10:47:56;;;;;;;3.67;2.63;;;;;;;;;;5035266;28;20044;-69
2023/07/21 10:50:23;;;;;;;6.55;2.20;;;;;;;;;;5036211;28;20492;-71
2023/07/21 10:52:53;;;;;;;3.80;2.65;;;;;;;;;;5036384;28;20160;-70
2023/07/21 10:55:19;;;;;;;3.65;2.67;;;;;;;;;;5036190;28;20041;-70
2023/07/21 10:57:46;;;;;;;13.10;2.20;;;;;;;;;;5036381;28;20057;-71
2023/07/21 11:00:15;;;;;;;6.00;1.77;;;;;;;;;;5035937;28;20049;-70
2023/07/21 11:02:41;;;;;;;2.88;1.60;;;;;;;;;;5036507;28;20030;-71
2023/07/21 11:05:10;;;;;;;5.85;2.00;;;;;;;;;;5034581;28;20037;-70
2023/07/21 11:07:36;;;;;;;7.63;2.10;;;;;;;;;;5036300;28;20056;-71
2023/07/21 11:10:03;;;;;;;4.97;2.40;;;;;;;;;;5036279;28;20037;-71
2023/07/21 11:12:29;;;;;;;4.35;2.25;;;;;;;;;;5051521;28;20072;-70
2023/07/21 11:14:56;;;;;;;4.28;2.70;;;;;;;;;;5035713;28;20183;-71
2023/07/21 11:17:22;;;;;;;4.32;2.30;;;;;;;;;;5035926;28;20041;-71
2023/07/21 11:19:48;;;;;;;2.30;1.90;;;;;;;;;;5036160;28;20042;-70
2023/07/21 11:22:14;;;;;;;2.97;2.35;;;;;;;;;;5036003;28;20036;-70
2023/07/21 11:24:41;;;;;;;4.57;2.28;;;;;;;;;;5035942;28;20124;-71
2023/07/21 11:27:09;;;;;;;5.13;2.30;;;;;;;;;;5036182;28;20058;-71
2023/07/21 11:29:37;;;;;;;3.22;2.40;;;;;;;;;;5036395;28;20041;-71
2023/07/21 11:32:15;;;;;;;5.35;2.42;;;;;;;;;;5036157;28;20083;-70
2023/07/21 11:34:42;;;;;;;2.40;2.17;;;;;;;;;;5032746;28;20033;-71
2023/07/21 11:37:09;;;;;;;3.22;2.17;;;;;;;;;;5048344;28;20079;-71
2023/07/21 11:39:35;;;;;;;4.45;1.92;;;;;;;;;;5031720;28;20057;-70
2023/07/21 11:42:03;;;;;;;2.90;2.40;;;;;;;;;;5032828;28;20039;-72
2023/07/21 11:44:30;;;;;;;2.97;2.28;;;;;;;;;;5032820;28;20025;-71
2023/07/21 11:47:03;;;;;;;2.58;2.10;;;;;;;;;;5032927;28;20025;-72
2023/07/21 11:49:30;;;;;;;3.60;2.40;;;;;;;;;;5033222;28;20037;-71
2023/07/21 11:52:14;;;;;;;3.55;2.33;;;;;;;;;;5033285;28;20030;-70
2023/07/21 11:54:41;;;;;;;3.33;1.90;;;;;;;;;;5033201;28;20034;-70
2023/07/21 11:57:08;;;;;;;5.13;2.53;;;;;;;;;;5014934;28;20045;-71
2023/07/21 11:59:34;;;;;;;3.50;2.60;;;;;;;;;;5032381;28;20113;-70
2023/07/21 12:02:03;;;;;;;3.13;2.65;;;;;;;;;;5032482;28;20033;-70
2023/07/21 12:04:30;;;;;;;4.43;3.15;;;;;;;;;;5032136;28;20030;-70
2023/07/21 12:06:56;;;;;;;5.32;2.97;;;;;;;;;;5032673;28;20253;-71
2023/07/21 12:09:23;;;;;;;4.15;3.00;;;;;;;;;;5032299;28;20076;-70
2023/07/21 12:11:49;;;;;;;6.05;2.50;;;;;;;;;;5053131;28;20057;-70
2023/07/21 12:14:15;;;;;;;3.75;2.38;;;;;;;;;;5044625;28;20117;-70
2023/07/21 12:16:41;;;;;;;2.40;2.20;;;;;;;;;;5042395;28;20092;-70
2023/07/21 12:19:09;;;;;;;4.00;2.50;;;;;;;;;;5042826;28;20064;-70
2023/07/21 12:21:36;;;;;;;2.92;1.88;;;;;;;;;;5046074;28;20083;-69
2023/07/21 12:24:02;;;;;;;3.13;2.03;;;;;;;;;;5042449;28;20028;-70
2023/07/21 12:26:28;;;;;;;3.17;2.08;;;;;;;;;;5041954;28;20024;-70
2023/07/21 12:28:55;;;;;;;2.13;1.88;;;;;;;;;;5040689;28;20041;-70
2023/07/21 12:31:22;;;;;;;3.40;2.38;;;;;;;;;;5039621;28;20057;-71
2023/07/21 12:33:48;;;;;;;3.45;2.30;;;;;;;;;;5040336;28;20029;-71
2023/07/21 12:36:15;;;;;;;3.13;2.35;;;;;;;;;;5040040;28;20029;-71
2023/07/21 12:38:42;;;;;;;5.30;2.45;;;;;;;;;;5041948;28;20021;-70
2023/07/21 12:41:09;;;;;;;4.22;2.50;;;;;;;;;;5031789;28;20108;-70
2023/07/21 12:43:35;;;;;;;3.80;2.72;;;;;;;;;;5039966;28;20025;-70
2023/07/21 12:46:02;;;;;;;3.53;3.05;;;;;;;;;;5040721;28;20045;-70
2023/07/21 12:48:30;;;;;;;5.15;4.63;;;;;;;;;;5040664;28;20082;-70
2023/07/21 12:50:57;;;;;;;5.47;4.63;;;;;;;;;;5040775;28;20099;-70
2023/07/21 12:53:23;;;;;;;8.40;5.65;;;;;;;;;;5056265;28;20506;-71
2023/07/21 12:55:50;;;;;;;5.30;4.70;;;;;;;;;;5037714;28;20139;-71
2023/07/21 12:58:19;;;;;;;9.13;5.22;;;;;;;;;;5039059;28;20104;-70
2023/07/21 13:00:46;;;;;;;7.70;5.43;;;;;;;;;;5042426;28;20100;-70
2023/07/21 13:03:13;;;;;;;9.30;5.13;;;;;;;;;;5041515;28;20021;-70
2023/07/21 13:05:39;;;;;;;11.32;5.28;;;;;;;;;;5043875;28;20044;-70
2023/07/21 13:08:06;;;;;;;6.97;5.13;;;;;;;;;;5040735;28;20029;-70
2023/07/21 13:10:32;;;;;;;13.52;5.38;;;;;;;;;;5039951;28;20099;-70
2023/07/21 13:12:59;;;;;;;7.50;5.18;;;;;;;;;;5042342;28;20033;-70
2023/07/21 13:15:25;;;;;;;14.23;4.93;;;;;;;;;;5039763;28;20025;-70
2023/07/21 13:17:51;;;;;;;6.95;4.18;;;;;;;;;;5040996;28;20539;-70
2023/07/21 13:20:17;;;;;;;6.70;3.80;;;;;;;;;;5041070;28;20112;-71
2023/07/21 13:22:43;;;;;;;7.38;4.15;;;;;;;;;;5040161;28;20100;-70
2023/07/21 13:25:10;;;;;;;8.13;4.88;;;;;;;;;;5041960;28;20026;-70
2023/07/21 13:27:37;;;;;;;6.90;4.28;;;;;;;;;;5040370;28;20048;-70
2023/07/21 13:30:04;;;;;;;6.88;4.38;;;;;;;;;;5040279;28;20039;-70
2023/07/21 13:32:30;;;;;;;8.10;4.38;;;;;;;;;;5039892;28;20156;-71
2023/07/21 13:34:57;;;;;;;8.85;5.22;;;;;;;;;;5041003;28;20051;-71
2023/07/21 13:37:24;;;;;;;8.07;4.95;;;;;;;;;;5039066;28;20036;-71
2023/07/21 13:39:50;;;;;;;7.95;4.80;;;;;;;;;;5039750;28;20040;-70
2023/07/21 13:42:16;;;;;;;9.40;6.00;;;;;;;;;;5038617;28;20037;-70
2023/07/21 13:44:42;;;;;;;14.55;7.05;;;;;;;;;;5056084;28;20032;-70
2023/07/21 13:47:10;;;;;;;8.85;6.55;;;;;;;;;;5038920;28;20033;-69
2023/07/21 13:49:36;;;;;;;14.32;7.57;;;;;;;;;;5039565;28;20386;-71
2023/07/21 13:52:03;;;;;;;10.60;7.78;;;;;;;;;;5040098;28;20136;-70
2023/07/21 13:54:29;;;;;;;14.10;7.80;;;;;;;;;;5037729;28;20024;-70
2023/07/21 13:56:55;;;;;;;8.07;6.60;;;;;;;;;;5050373;28;20121;-70
2023/07/21 13:59:21;;;;;;;13.07;8.15;;;;;;;;;;5034817;28;20036;-71
2023/07/21 14:01:47;;;;;;;10.38;8.00;;;;;;;;;;5037675;28;20037;-71
2023/07/21 14:04:13;;;;;;;17.63;8.25;;;;;;;;;;5034041;28;20028;-70
2023/07/21 14:06:40;;;;;;;14.18;7.80;;;;;;;;;;5035826;28;20124;-71
2023/07/21 14:09:10;;;;;;;12.15;8.80;;;;;;;;;;5034656;28;20574;-70
2023/07/21 14:11:36;;;;;;;12.38;8.43;;;;;;;;;;5036648;28;20047;-69
2023/07/21 14:14:02;;;;;;;14.30;8.60;;;;;;;;;;5034746;28;20042;-72
2023/07/21 14:16:29;;;;;;;10.82;8.38;;;;;;;;;;5037049;28;20035;-71
2023/07/21 14:18:56;;;;;;;13.43;8.35;;;;;;;;;;5039300;28;20032;-69
2023/07/21 14:21:22;;;;;;;12.95;8.95;;;;;;;;;;5054204;28;20043;-69
2023/07/21 14:23:49;;;;;;;12.30;8.00;;;;;;;;;;5040100;28;20032;-70
2023/07/21 14:26:15;;;;;;;13.02;7.95;;;;;;;;;;5039592;28;20053;-70
2023/07/21 14:28:41;;;;;;;11.85;7.63;;;;;;;;;;5037360;28;20059;-69
2023/07/21 14:31:08;;;;;;;12.23;7.43;;;;;;;;;;5051545;28;20325;-69
2023/07/21 14:33:34;;;;;;;12.00;8.32;;;;;;;;;;5039212;28;20055;-70
2023/07/21 14:36:00;;;;;;;12.45;8.30;;;;;;;;;;5038467;28;20026;-69
2023/07/21 14:38:27;;;;;;;16.30;8.77;;;;;;;;;;5038248;28;20044;-70